• Join FlightAware (Why Join?)
  • Login
  • US Flag 
03:54PM EDT


 

Airport Tracker/Info


-or-


 

Live Flight TrackerFlight Track Log ✈ BEL3160 ✈ 22-Apr-2013 ✈ LIMC / MXP - EBBR / BRU

Flight Track Log - Related Links

Times and Time Zones

All times are in EDT time to prevent confusion due to time zone crossing. See the BEL3160 flight status page for this flight to view local times or setup timezone preferences in your user account.

Time Position Orientation Groundspeed Altitude Reporting Facility
EDT Latitude Longitude Course Direction KTS MPH feet Rate Location/Type
03:09PM 46.2398 8.2860 333° Northwest  Level Estimated
03:10PM 46.3158 8.2300 333° Northwest  Level Estimated
03:11PM 46.3918 8.1739 333° Northwest  Level Estimated
03:12PM 46.4678 8.1177 333° Northwest  Level Estimated
03:13PM 46.5438 8.0612 333° Northwest  Level Estimated
03:14PM 46.6197 8.0047 333° Northwest  Level Estimated
03:15PM 46.6956 7.9479 333° Northwest  Level Estimated
03:16PM 46.7714 7.8910 333° Northwest  Level Estimated
03:17PM 46.8473 7.8340 333° Northwest  Level Estimated
03:18PM 46.9231 7.7767 333° Northwest  Level Estimated
03:19PM 46.9989 7.7193 333° Northwest  Level Estimated
03:20PM 47.0746 7.6618 333° Northwest  Level Estimated
03:21PM 47.1503 7.6041 333° Northwest  Level Estimated
03:22PM 47.2260 7.5462 333° Northwest  Level Estimated
03:23PM 47.3017 7.4882 333° Northwest  Level Estimated
03:24PM 47.3773 7.4300 332° Northwest  Level Estimated
03:25PM 47.4529 7.3716 332° Northwest  Level Estimated
03:26PM 47.5285 7.3130 332° Northwest  Level Estimated
03:27PM 47.6040 7.2543 332° Northwest  Level Estimated
03:28PM 47.6795 7.1954 332° Northwest  Level Estimated
03:29PM 47.7550 7.1364 332° Northwest  Level Estimated
03:30PM 47.8304 7.0772 332° Northwest  Level Estimated
03:31PM 47.9059 7.0178 332° Northwest  Level Estimated
03:32PM 47.9813 6.9582 332° Northwest  Level Estimated
03:33PM 48.0566 6.8985 332° Northwest  Level Estimated
03:34PM 48.1320 6.8386 332° Northwest  Level Estimated
03:35PM 48.2072 6.7785 332° Northwest  Level Estimated
03:36PM 48.2825 6.7182 332° Northwest  Level Estimated
03:37PM 48.3578 6.6577 332° Northwest  Level Estimated
03:38PM 48.4330 6.5971 332° Northwest  Level Estimated
03:39PM 48.5081 6.5363 332° Northwest  Level Estimated
03:40PM 48.5833 6.4753 332° Northwest  Level Estimated
03:41PM 48.6584 6.4141 332° Northwest  Level Estimated
03:42PM 48.7335 6.3528 332° Northwest  Level Estimated
03:43PM 48.8085 6.2912 332° Northwest  Level Estimated
03:44PM 48.8835 6.2295 332° Northwest  Level Estimated
03:45PM 48.9585 6.1676 332° Northwest  Level Estimated
03:46PM 49.0334 6.1055 331° Northwest  Level Estimated
03:47PM 49.1083 6.0432 331° Northwest  Level Estimated
03:48PM 49.1832 5.9808 331° Northwest  Level Estimated
03:49PM 49.2580 5.9181 331° Northwest  Level Estimated
03:50PM 49.3329 5.8553 331° Northwest  Level Estimated
03:51PM 49.4076 5.7922 331° Northwest  Level Estimated
03:52PM 49.4824 5.7290 331° Northwest  Level Estimated
03:53PM 49.5571 5.6656 331° Northwest  Level Estimated
03:54PM 49.6317 5.6020 331° Northwest  Level Estimated
03:55PM 49.7064 5.5381 331° Northwest  Level Estimated
03:56PM 49.7810 5.4741 331° Northwest  Level Estimated
03:57PM 49.8555 5.4099 331° Northwest  Level Estimated
03:58PM 49.9301 5.3455 331° Northwest  Level Estimated
03:59PM 50.0046 5.2809 331° Northwest  Level Estimated
04:00PM 50.0790 5.2161 331° Northwest  Level Estimated
04:01PM 50.1534 5.1511 331° Northwest  Level Estimated
04:02PM 50.2278 5.0859 331° Northwest  Level Estimated
04:03PM 50.3022 5.0205 331° Northwest  Level Estimated
04:04PM 50.3765 4.9548 331° Northwest  Level Estimated
04:05PM 50.4507 4.8890 331° Northwest  Level Estimated
04:06PM 50.5250 4.8230 331° Northwest  Level Estimated
04:07PM 50.5992 4.7568 330° Northwest  Level Estimated
04:08PM 50.6734 4.6903 330° Northwest  Level Estimated
04:09PM 50.7475 4.6236 330° Northwest  Level Estimated
04:10PM 50.8216 4.5568 330° Northwest  Level Estimated
04:11PM 50.8956 4.4897 330° Northwest  Level Estimated
04:12PM 50.9014 4.4844 330° Northwest  Level Estimated
04:13PM 50.9014 4.4844 112° Southeast  Level Estimated
04:14PM 50.9014 4.4844 112° Southeast  Level Estimated
04:15PM 50.9014 4.4844 112° Southeast  Level Estimated
04:16PM 50.9014 4.4844 112° Southeast  Level Estimated
04:17PM 50.9014 4.4844 112° Southeast  Level Estimated
04:18PM 50.9014 4.4844 112° Southeast  Level Estimated
04:19PM 50.9014 4.4844 112° Southeast  Level Estimated
04:20PM 50.9014 4.4844 112° Southeast  Level Estimated
04:21PM 50.9014 4.4844 112° Southeast  Level Estimated